createdAt,value
2022-12-03T00:00:11.927Z,6.30
2022-12-03T00:02:40.909Z,6.30
2022-12-03T00:05:09.055Z,6.30
2022-12-03T00:07:36.843Z,6.30
2022-12-03T00:10:05.887Z,6.30
2022-12-03T00:12:51.459Z,6.30
2022-12-03T00:15:19.820Z,6.30
2022-12-03T00:17:47.208Z,6.20
2022-12-03T00:20:20.700Z,6.20
2022-12-03T00:22:48.197Z,6.20
2022-12-03T00:25:16.126Z,6.20
2022-12-03T00:27:43.760Z,6.30
2022-12-03T00:30:11.878Z,6.30
2022-12-03T00:32:39.408Z,6.30
2022-12-03T00:35:07.159Z,6.30
2022-12-03T00:37:35.460Z,6.40
2022-12-03T00:40:05.378Z,6.40
2022-12-03T00:42:33.038Z,6.40
2022-12-03T00:45:00.518Z,6.30
2022-12-03T00:47:27.985Z,6.30
2022-12-03T00:49:55.389Z,6.30
2022-12-03T00:52:22.818Z,6.30
2022-12-03T00:54:50.336Z,6.30
2022-12-03T00:57:17.987Z,6.30
2022-12-03T00:59:45.339Z,6.30
2022-12-03T01:02:12.948Z,6.20
2022-12-03T01:04:40.562Z,6.20
2022-12-03T01:07:07.983Z,6.30
2022-12-03T01:09:35.349Z,6.30
2022-12-03T01:12:02.893Z,6.30
2022-12-03T01:14:30.300Z,6.30
2022-12-03T01:16:57.738Z,6.30
2022-12-03T01:19:25.819Z,6.30
2022-12-03T01:21:53.319Z,6.30
2022-12-03T01:24:20.786Z,6.30
2022-12-03T01:26:48.373Z,6.30
2022-12-03T01:29:15.849Z,6.30
2022-12-03T01:32:02.136Z,6.30
2022-12-03T01:34:29.748Z,6.30
2022-12-03T01:36:57.248Z,6.30
2022-12-03T01:39:24.877Z,6.40
2022-12-03T01:41:54.299Z,6.40
2022-12-03T01:44:29.278Z,6.40
2022-12-03T01:46:58.632Z,6.40
2022-12-03T01:49:46.928Z,6.40
2022-12-03T01:52:17.469Z,6.40
2022-12-03T01:55:07.276Z,6.40
2022-12-03T01:57:46.288Z,6.40
2022-12-03T02:00:20.590Z,6.40
2022-12-03T02:02:55.456Z,6.40
2022-12-03T02:05:29.149Z,6.30
2022-12-03T02:07:57.179Z,6.30
2022-12-03T02:10:31.226Z,6.30
2022-12-03T02:13:10.329Z,6.30
2022-12-03T02:15:40.111Z,6.30
2022-12-03T02:18:09.130Z,6.30
2022-12-03T02:21:00.680Z,6.20
2022-12-03T02:23:43.438Z,6.20
2022-12-03T02:26:11.191Z,6.20
2022-12-03T02:28:38.838Z,6.20
2022-12-03T02:31:06.525Z,6.20
2022-12-03T02:33:34.049Z,6.20
2022-12-03T02:36:03.835Z,6.20
2022-12-03T02:38:34.747Z,6.20
2022-12-03T02:41:07.657Z,6.20
2022-12-03T02:43:35.292Z,6.10
2022-12-03T02:46:04.688Z,6.10
2022-12-03T02:48:40.447Z,6.00
2022-12-03T02:51:10.516Z,6.10
2022-12-03T02:53:44.987Z,6.10
2022-12-03T02:56:19.487Z,6.00
2022-12-03T02:58:49.766Z,6.00
2022-12-03T03:01:17.752Z,6.00
2022-12-03T03:03:47.245Z,5.90
2022-12-03T03:06:15.999Z,6.00
2022-12-03T03:08:44.080Z,5.90
2022-12-03T03:11:11.769Z,5.90
2022-12-03T03:13:39.897Z,5.90
2022-12-03T03:16:08.593Z,5.90
2022-12-03T03:18:36.347Z,5.90
2022-12-03T03:21:04.507Z,5.80
2022-12-03T03:23:31.926Z,5.80
2022-12-03T03:26:09.247Z,5.80
2022-12-03T03:28:39.718Z,5.80
2022-12-03T03:31:09.316Z,5.80
2022-12-03T03:33:39.242Z,5.80
2022-12-03T03:36:07.537Z,5.80
2022-12-03T03:38:35.699Z,5.80
2022-12-03T03:41:06.043Z,5.80
2022-12-03T03:43:35.119Z,5.80
2022-12-03T03:46:04.976Z,5.80
2022-12-03T03:48:34.762Z,5.80
2022-12-03T03:51:04.407Z,5.70
2022-12-03T03:53:31.788Z,5.70
2022-12-03T03:55:59.228Z,5.70
2022-12-03T03:58:26.596Z,5.60
2022-12-03T04:00:54.000Z,5.60
2022-12-03T04:03:21.367Z,5.60
2022-12-03T04:05:51.197Z,5.60
2022-12-03T04:08:18.672Z,5.60
2022-12-03T04:11:04.655Z,5.60
2022-12-03T04:13:32.107Z,5.60
2022-12-03T04:15:59.473Z,5.60
2022-12-03T04:18:45.286Z,5.60
2022-12-03T04:21:39.568Z,5.60
2022-12-03T04:24:08.498Z,5.60
2022-12-03T04:26:54.629Z,5.60
2022-12-03T04:29:22.667Z,5.70
2022-12-03T04:32:08.911Z,5.70
2022-12-03T04:34:55.431Z,5.70
2022-12-03T04:37:22.997Z,5.70
2022-12-03T04:39:50.356Z,5.70
2022-12-03T04:42:17.788Z,5.70
2022-12-03T04:44:45.078Z,5.80
2022-12-03T04:47:14.716Z,5.80
2022-12-03T04:49:44.629Z,5.80
2022-12-03T04:52:13.716Z,5.80
2022-12-03T04:54:41.808Z,5.80
2022-12-03T04:57:09.997Z,5.80
2022-12-03T04:59:37.727Z,5.80
2022-12-03T05:02:06.405Z,5.80
2022-12-03T05:04:34.548Z,5.70
2022-12-03T05:07:02.118Z,5.80
2022-12-03T05:09:29.466Z,5.80
2022-12-03T05:11:56.848Z,5.80
2022-12-03T05:14:24.169Z,5.80
2022-12-03T05:16:51.543Z,5.80
2022-12-03T05:19:18.938Z,5.80
2022-12-03T05:21:46.289Z,5.80
2022-12-03T05:24:14.860Z,5.80
2022-12-03T05:26:42.227Z,5.80
2022-12-03T05:29:09.488Z,5.70
2022-12-03T05:31:36.834Z,5.70
2022-12-03T05:34:04.698Z,5.70
2022-12-03T05:36:32.119Z,5.70
2022-12-03T05:38:59.373Z,5.80
2022-12-03T05:41:45.055Z,5.80
2022-12-03T05:44:16.113Z,5.80
2022-12-03T05:46:46.208Z,5.80
2022-12-03T05:49:13.573Z,5.80
2022-12-03T05:51:40.898Z,5.70
2022-12-03T05:54:08.244Z,5.70
2022-12-03T05:56:35.549Z,5.70
2022-12-03T05:59:02.847Z,5.70
2022-12-03T06:01:30.187Z,5.70
2022-12-03T06:03:57.522Z,5.60
2022-12-03T06:06:24.905Z,5.60
2022-12-03T06:08:52.247Z,5.70
2022-12-03T06:11:19.599Z,5.70
2022-12-03T06:13:46.857Z,5.60
2022-12-03T06:16:14.326Z,5.60
2022-12-03T06:18:41.659Z,5.60
2022-12-03T06:21:09.019Z,5.60
2022-12-03T06:23:37.597Z,5.60
2022-12-03T06:26:05.157Z,5.60
2022-12-03T06:28:32.405Z,5.60
2022-12-03T06:30:59.888Z,5.50
2022-12-03T06:33:27.260Z,5.50
2022-12-03T06:35:54.629Z,5.50
2022-12-03T06:38:22.639Z,5.50
2022-12-03T06:40:49.989Z,5.60
2022-12-03T06:43:17.296Z,5.60
2022-12-03T06:45:47.854Z,5.60
2022-12-03T06:48:15.651Z,5.60
2022-12-03T06:50:42.958Z,5.60
2022-12-03T06:53:10.367Z,5.60
2022-12-03T06:55:37.628Z,5.60
2022-12-03T06:58:05.008Z,5.60
2022-12-03T07:00:32.338Z,5.60
2022-12-03T07:02:59.760Z,5.60
2022-12-03T07:05:27.115Z,5.60
2022-12-03T07:07:55.630Z,5.60
2022-12-03T07:10:23.148Z,5.60
2022-12-03T07:12:50.477Z,5.60
2022-12-03T07:15:17.949Z,5.60
2022-12-03T07:17:45.278Z,5.60
2022-12-03T07:20:13.197Z,5.60
2022-12-03T07:22:40.589Z,5.60
2022-12-03T07:25:08.579Z,5.60
2022-12-03T07:27:35.958Z,5.60
2022-12-03T07:30:03.409Z,5.60
2022-12-03T07:32:30.727Z,5.60
2022-12-03T07:34:58.026Z,5.60
2022-12-03T07:37:25.526Z,5.60
2022-12-03T07:39:52.888Z,5.60
2022-12-03T07:42:20.331Z,5.60
2022-12-03T07:45:03.028Z,5.60
2022-12-03T07:47:30.431Z,5.60
2022-12-03T07:49:57.821Z,5.60
2022-12-03T07:52:25.264Z,5.50
2022-12-03T07:54:52.772Z,5.60
2022-12-03T07:57:20.398Z,5.60
2022-12-03T07:59:47.788Z,5.60
2022-12-03T08:02:20.973Z,5.60
2022-12-03T08:04:49.109Z,5.60
2022-12-03T08:07:16.508Z,5.60
2022-12-03T08:09:44.200Z,5.60
2022-12-03T08:12:22.488Z,5.60
2022-12-03T08:14:50.140Z,5.60
2022-12-03T08:17:18.791Z,5.70
2022-12-03T08:19:47.809Z,5.70
2022-12-03T08:22:15.929Z,5.70
2022-12-03T08:24:43.927Z,5.70
2022-12-03T08:27:18.839Z,5.70
2022-12-03T08:29:47.076Z,5.70
2022-12-03T08:32:14.576Z,5.70
2022-12-03T08:34:44.402Z,5.70
2022-12-03T08:37:17.818Z,5.70
2022-12-03T08:39:55.569Z,5.70
2022-12-03T08:42:43.206Z,5.70
2022-12-03T08:45:19.627Z,5.70
2022-12-03T08:47:47.027Z,5.70
2022-12-03T08:50:30.180Z,5.70
2022-12-03T08:53:12.118Z,5.70
2022-12-03T08:55:45.748Z,5.70
2022-12-03T08:58:23.350Z,5.70
2022-12-03T09:01:06.108Z,5.70
2022-12-03T09:03:34.398Z,5.70
2022-12-03T09:06:01.810Z,5.70
2022-12-03T09:08:31.318Z,5.70
2022-12-03T09:10:58.735Z,5.70
2022-12-03T09:13:26.147Z,5.70
2022-12-03T09:15:53.561Z,5.70
2022-12-03T09:18:20.990Z,5.80
2022-12-03T09:20:48.381Z,5.70
2022-12-03T09:23:15.858Z,5.80
2022-12-03T09:25:43.278Z,5.80
2022-12-03T09:28:10.708Z,5.80
2022-12-03T09:30:38.138Z,5.80
2022-12-03T09:33:05.528Z,5.80
2022-12-03T09:35:33.538Z,5.90
2022-12-03T09:38:01.022Z,5.90
2022-12-03T09:40:29.400Z,5.90
2022-12-03T09:42:58.856Z,5.90
2022-12-03T09:45:26.385Z,5.80
2022-12-03T09:47:55.101Z,5.80
2022-12-03T09:50:26.789Z,5.90
2022-12-03T09:52:57.168Z,5.90
2022-12-03T09:55:27.523Z,5.90
2022-12-03T09:57:56.476Z,5.90
2022-12-03T10:00:27.003Z,6.00
2022-12-03T10:02:58.338Z,5.90
2022-12-03T10:05:26.008Z,6.00
2022-12-03T10:07:53.727Z,6.00
2022-12-03T10:10:25.388Z,6.00
2022-12-03T10:12:53.488Z,6.00
2022-12-03T10:15:23.789Z,6.10
2022-12-03T10:17:53.599Z,6.00
2022-12-03T10:20:22.928Z,6.00
2022-12-03T10:25:32.423Z,6.10
2022-12-03T10:28:02.799Z,6.00
2022-12-03T10:30:30.702Z,6.10
2022-12-03T10:33:02.823Z,6.10
2022-12-03T10:35:41.497Z,6.10
2022-12-03T10:38:22.474Z,6.10
2022-12-03T10:43:31.987Z,6.10
2022-12-03T10:46:03.802Z,6.10
2022-12-03T10:48:39.769Z,6.10
2022-12-03T10:51:23.060Z,6.10
2022-12-03T10:53:51.391Z,6.20
2022-12-03T10:56:27.142Z,6.20
2022-12-03T10:58:55.439Z,6.20
2022-12-03T11:01:25.674Z,6.30
2022-12-03T11:03:55.650Z,6.20
2022-12-03T11:06:24.459Z,6.20
2022-12-03T11:08:59.484Z,6.20
2022-12-03T11:11:31.086Z,6.20
2022-12-03T11:14:03.799Z,6.20
2022-12-03T11:16:40.059Z,6.20
2022-12-03T11:19:13.525Z,6.20
2022-12-03T11:22:03.762Z,6.30
2022-12-03T11:24:36.559Z,6.30
2022-12-03T11:27:03.897Z,6.30
2022-12-03T11:29:57.043Z,6.30
2022-12-03T11:32:39.800Z,6.30
2022-12-03T11:35:25.721Z,6.30
2022-12-03T11:37:53.298Z,6.40
2022-12-03T11:40:20.628Z,6.40
2022-12-03T11:42:49.199Z,6.40
2022-12-03T11:45:23.507Z,6.50
2022-12-03T11:48:02.851Z,6.50
2022-12-03T11:50:39.897Z,6.60
2022-12-03T11:53:21.448Z,6.60
2022-12-03T11:59:01.820Z,6.60
2022-12-03T12:01:39.061Z,6.60
2022-12-03T12:04:08.798Z,6.60
2022-12-03T12:06:43.803Z,6.70
2022-12-03T12:09:11.457Z,6.70
2022-12-03T12:11:44.008Z,6.80
2022-12-03T12:14:13.193Z,6.80
2022-12-03T12:19:41.566Z,6.90
2022-12-03T12:22:26.938Z,6.90
2022-12-03T12:25:02.645Z,7.00
2022-12-03T12:27:34.638Z,7.00
2022-12-03T12:30:03.509Z,7.10
2022-12-03T12:32:49.099Z,7.10
2022-12-03T12:35:25.619Z,7.20
2022-12-03T12:38:07.388Z,7.20
2022-12-03T12:40:36.977Z,7.20
2022-12-03T12:43:15.250Z,7.20
2022-12-03T12:45:45.570Z,7.20
2022-12-03T12:48:15.607Z,7.20
2022-12-03T12:50:48.219Z,7.30
2022-12-03T12:53:25.104Z,7.30
2022-12-03T12:55:58.298Z,7.30
2022-12-03T12:58:28.579Z,7.30
2022-12-03T13:00:58.994Z,7.40
2022-12-03T13:03:29.790Z,7.40
2022-12-03T13:05:58.007Z,7.40
2022-12-03T13:08:28.693Z,7.40
2022-12-03T13:10:58.891Z,7.50
2022-12-03T13:13:41.616Z,7.50
2022-12-03T13:16:23.158Z,7.50
2022-12-03T13:18:55.219Z,7.60
2022-12-03T13:21:31.628Z,7.60
2022-12-03T13:23:59.219Z,7.60
2022-12-03T13:26:38.110Z,7.70
2022-12-03T13:29:13.724Z,7.70
2022-12-03T13:31:44.174Z,7.70
2022-12-03T13:34:18.735Z,7.80
2022-12-03T13:36:52.027Z,7.80
2022-12-03T13:39:33.369Z,7.80
2022-12-03T13:42:42.388Z,7.80
2022-12-03T13:45:26.277Z,7.80
2022-12-03T13:48:00.695Z,7.90
2022-12-03T13:50:27.915Z,7.90
2022-12-03T13:52:55.335Z,7.90
2022-12-03T13:55:27.150Z,7.90
2022-12-03T13:57:54.956Z,7.90
2022-12-03T14:00:22.446Z,7.90
2022-12-03T14:02:50.090Z,7.90
2022-12-03T14:05:17.478Z,7.90
2022-12-03T14:07:44.659Z,7.90
2022-12-03T14:10:13.019Z,7.90
2022-12-03T14:12:40.298Z,8.00
2022-12-03T14:15:10.597Z,8.00
2022-12-03T14:17:37.852Z,8.00
2022-12-03T14:20:05.667Z,8.00
2022-12-03T14:22:32.835Z,8.00
2022-12-03T14:25:08.626Z,8.00
2022-12-03T14:27:38.896Z,8.00
2022-12-03T14:30:06.747Z,8.00
2022-12-03T14:32:34.025Z,8.00
2022-12-03T14:35:03.973Z,8.00
2022-12-03T14:37:35.446Z,8.10
2022-12-03T14:40:04.023Z,8.10
2022-12-03T14:42:31.212Z,8.20
2022-12-03T14:44:58.395Z,8.20
2022-12-03T14:47:25.588Z,8.20
2022-12-03T14:49:53.400Z,8.30
2022-12-03T14:52:21.026Z,8.30
2022-12-03T14:54:48.202Z,8.20
2022-12-03T14:57:16.024Z,8.20
2022-12-03T14:59:44.345Z,8.20
2022-12-03T15:02:21.104Z,8.10
2022-12-03T15:04:48.645Z,8.10
2022-12-03T15:07:15.824Z,8.00
2022-12-03T15:09:43.159Z,8.00
2022-12-03T15:12:10.306Z,7.90
2022-12-03T15:14:37.475Z,7.90
2022-12-03T15:17:31.960Z,7.90
2022-12-03T15:20:02.539Z,7.90
2022-12-03T15:22:29.715Z,8.00
2022-12-03T15:24:56.962Z,8.00
2022-12-03T15:27:24.187Z,8.00
2022-12-03T15:29:51.817Z,8.00
2022-12-03T15:32:25.077Z,8.00
2022-12-03T15:34:52.326Z,8.00
2022-12-03T15:37:28.725Z,8.10
2022-12-03T15:39:56.288Z,8.10
2022-12-03T15:42:23.672Z,8.10
2022-12-03T15:44:51.109Z,8.10
2022-12-03T15:47:18.565Z,8.10
2022-12-03T15:49:45.756Z,8.10
2022-12-03T15:52:12.916Z,8.10
2022-12-03T15:54:40.105Z,8.00
2022-12-03T15:57:07.236Z,8.00
2022-12-03T15:59:43.588Z,8.00
2022-12-03T16:02:10.978Z,7.90
2022-12-03T16:04:38.206Z,7.80
2022-12-03T16:07:05.808Z,7.80
2022-12-03T16:09:33.055Z,7.70
2022-12-03T16:12:00.276Z,7.70
2022-12-03T16:14:27.625Z,7.60
2022-12-03T16:16:55.416Z,7.50
2022-12-03T16:19:22.557Z,7.50
2022-12-03T16:21:49.775Z,7.40
2022-12-03T16:24:59.541Z,7.40
2022-12-03T16:27:45.497Z,7.40
2022-12-03T16:33:59.827Z,7.30
2022-12-03T16:36:26.968Z,7.20
2022-12-03T16:38:54.146Z,7.10
2022-12-03T16:41:22.584Z,7.10
2022-12-03T16:44:43.347Z,7.00
2022-12-03T16:47:10.576Z,7.00
2022-12-03T16:49:37.757Z,7.00
2022-12-03T16:52:05.007Z,7.00
2022-12-03T16:54:32.158Z,7.00
2022-12-03T16:56:59.357Z,7.00
2022-12-03T16:59:26.467Z,6.90
2022-12-03T17:01:53.804Z,7.00
2022-12-03T17:04:21.208Z,7.00
2022-12-03T17:07:06.650Z,7.00
2022-12-03T17:09:52.706Z,7.00
2022-12-03T17:13:00.721Z,7.00
2022-12-03T17:15:19.289Z,6.90
2022-12-03T17:17:46.477Z,7.00
2022-12-03T17:20:14.844Z,7.00
2022-12-03T17:22:42.159Z,7.00
2022-12-03T17:25:10.393Z,7.00
2022-12-03T17:27:43.514Z,6.90
2022-12-03T17:30:49.363Z,6.90
2022-12-03T17:33:31.760Z,6.90
2022-12-03T17:36:05.119Z,6.90
2022-12-03T17:38:39.500Z,6.90
2022-12-03T17:41:18.688Z,6.90
2022-12-03T17:44:21.643Z,6.90
2022-12-03T17:47:37.329Z,6.90
2022-12-03T17:50:28.126Z,7.00
2022-12-03T17:53:25.746Z,6.90
2022-12-03T17:55:59.034Z,6.90
2022-12-03T17:58:29.286Z,6.90
2022-12-03T18:01:02.078Z,6.90
2022-12-03T18:03:30.517Z,6.80
2022-12-03T18:05:57.716Z,6.80
2022-12-03T18:08:24.957Z,6.90
2022-12-03T18:10:52.116Z,6.90
2022-12-03T18:13:19.296Z,6.90
2022-12-03T18:15:46.438Z,6.80
2022-12-03T18:18:13.848Z,6.80
2022-12-03T18:20:41.026Z,6.80
2022-12-03T18:23:08.356Z,6.80
2022-12-03T18:25:35.956Z,6.80
2022-12-03T18:28:03.184Z,6.80
2022-12-03T18:30:30.298Z,6.80
2022-12-03T18:32:57.508Z,6.80
2022-12-03T18:35:24.727Z,6.70
2022-12-03T18:37:51.986Z,6.70
2022-12-03T18:40:23.888Z,6.70
2022-12-03T18:42:51.049Z,6.70
2022-12-03T18:45:18.264Z,6.60
2022-12-03T18:47:45.740Z,6.60
2022-12-03T18:50:13.596Z,6.60
2022-12-03T18:52:41.317Z,6.60
2022-12-03T18:55:14.238Z,6.50
2022-12-03T18:57:41.496Z,6.60
2022-12-03T19:00:13.457Z,6.60
2022-12-03T19:05:29.149Z,6.60
2022-12-03T19:07:56.784Z,6.60
2022-12-03T19:10:24.616Z,6.60
2022-12-03T19:12:51.959Z,6.60
2022-12-03T19:15:19.286Z,6.60
2022-12-03T19:17:50.675Z,6.60
2022-12-03T19:20:17.918Z,6.60
2022-12-03T19:22:45.057Z,6.70
2022-12-03T19:25:12.585Z,6.70
2022-12-03T19:27:39.787Z,6.70
2022-12-03T19:30:07.838Z,6.70
2022-12-03T19:32:35.531Z,6.80
2022-12-03T19:35:05.351Z,6.80
2022-12-03T19:37:34.026Z,6.80
2022-12-03T19:40:01.366Z,6.80
2022-12-03T19:42:28.661Z,6.80
2022-12-03T19:44:55.867Z,6.80
2022-12-03T19:47:24.848Z,6.80
2022-12-03T19:49:54.086Z,6.90
2022-12-03T19:52:21.467Z,6.80
2022-12-03T19:54:48.658Z,6.90
2022-12-03T19:57:22.913Z,6.80
2022-12-03T19:59:50.716Z,6.80
2022-12-03T20:02:18.078Z,6.80
2022-12-03T20:04:45.436Z,6.80
2022-12-03T20:07:12.647Z,6.80
2022-12-03T20:09:39.911Z,6.80
2022-12-03T20:12:07.229Z,6.70
2022-12-03T20:14:34.552Z,6.80
2022-12-03T20:17:01.871Z,6.80
2022-12-03T20:19:29.157Z,6.80
2022-12-03T20:22:02.043Z,6.80
2022-12-03T20:24:29.827Z,6.70
2022-12-03T20:26:56.997Z,6.70
2022-12-03T20:29:24.216Z,6.70
2022-12-03T20:31:51.488Z,6.80
2022-12-03T20:34:18.921Z,6.70
2022-12-03T20:36:46.129Z,6.80
2022-12-03T20:39:13.377Z,6.70
2022-12-03T20:41:40.646Z,6.70
2022-12-03T20:44:08.048Z,6.70
2022-12-03T20:46:36.275Z,6.70
2022-12-03T20:49:04.401Z,6.70
2022-12-03T20:51:31.777Z,6.70
2022-12-03T20:54:00.236Z,6.70
2022-12-03T20:56:31.489Z,6.70
2022-12-03T20:59:05.169Z,6.70
2022-12-03T21:01:33.349Z,6.70
2022-12-03T21:04:00.717Z,6.70
2022-12-03T21:06:30.129Z,6.70
2022-12-03T21:08:59.149Z,6.70
2022-12-03T21:11:29.797Z,6.70
2022-12-03T21:13:57.776Z,6.60
2022-12-03T21:16:52.060Z,6.60
2022-12-03T21:19:20.474Z,6.60
2022-12-03T21:21:47.817Z,6.60
2022-12-03T21:24:15.503Z,6.60
2022-12-03T21:26:42.734Z,6.60
2022-12-03T21:29:10.077Z,6.60
2022-12-03T21:31:38.524Z,6.60
2022-12-03T21:34:05.977Z,6.60
2022-12-03T21:36:33.276Z,6.60
2022-12-03T21:39:00.718Z,6.60
2022-12-03T21:41:27.966Z,6.60
2022-12-03T21:43:55.234Z,6.50
2022-12-03T21:47:11.971Z,6.50
2022-12-03T21:49:09.697Z,6.50
2022-12-03T21:51:36.998Z,6.50
2022-12-03T21:54:04.270Z,6.50
2022-12-03T21:56:32.069Z,6.50
2022-12-03T21:58:59.321Z,6.40
2022-12-03T22:01:26.656Z,6.40
2022-12-03T22:03:53.988Z,6.40
2022-12-03T22:06:21.493Z,6.40
2022-12-03T22:08:48.898Z,6.40
2022-12-03T22:11:19.898Z,6.40
2022-12-03T22:13:47.729Z,6.40
2022-12-03T22:16:20.604Z,6.40
2022-12-03T22:18:48.441Z,6.30
2022-12-03T22:21:18.566Z,6.30
2022-12-03T22:23:46.177Z,6.30
2022-12-03T22:26:16.368Z,6.30
2022-12-03T22:28:48.318Z,6.30
2022-12-03T22:31:17.154Z,6.30
2022-12-03T22:33:48.367Z,6.20
2022-12-03T22:36:21.198Z,6.20
2022-12-03T22:38:50.548Z,6.20
2022-12-03T22:41:18.987Z,6.20
2022-12-03T22:43:47.398Z,6.10
2022-12-03T22:46:15.622Z,6.10
2022-12-03T22:48:44.848Z,6.10
2022-12-03T22:51:23.147Z,6.10
2022-12-03T22:54:01.299Z,6.10
2022-12-03T22:56:29.786Z,6.10
2022-12-03T22:59:00.197Z,6.00
2022-12-03T23:01:33.188Z,6.00
2022-12-03T23:04:01.186Z,6.00
2022-12-03T23:06:29.345Z,6.00
2022-12-03T23:08:57.458Z,6.00
2022-12-03T23:11:25.113Z,6.00
2022-12-03T23:13:52.707Z,6.00
2022-12-03T23:16:23.689Z,6.00
2022-12-03T23:18:51.142Z,6.00
2022-12-03T23:21:29.847Z,5.90
2022-12-03T23:24:02.614Z,5.90
2022-12-03T23:26:30.632Z,5.90
2022-12-03T23:28:57.864Z,5.90
2022-12-03T23:31:30.537Z,5.80
2022-12-03T23:33:58.870Z,5.80
2022-12-03T23:36:28.448Z,5.80
2022-12-03T23:38:55.731Z,5.90
2022-12-03T23:41:24.172Z,5.80
2022-12-03T23:43:51.781Z,5.80
2022-12-03T23:46:25.262Z,5.90
2022-12-03T23:48:52.852Z,5.90
2022-12-03T23:51:22.752Z,5.90
2022-12-03T23:53:50.491Z,5.90
2022-12-03T23:56:21.430Z,5.90
2022-12-03T23:58:48.693Z,5.90
